Time;durP1;ratioP1;P1;durP2;ratioP2;P2;SDS_P1;SDS_P2;PMS_P1;PMS_P2;Temp;Humidity;BMP_temperature;BMP_pressure;BME280_temperature;BME280_humidity;BME280_pressure;Samples;Min_cycle;Max_cycle;Signal;HPM_P1;HPM_P2
2021/11/25 00:00:01;;;;;;;5.18;1.23;;;;;;;;;;6169361;23;20084;-72
2021/11/25 00:02:27;;;;;;;4.35;1.35;;;;;;;;;;6174390;23;20018;-72
2021/11/25 00:04:53;;;;;;;4.25;1.23;;;;;;;;;;6174537;23;20057;-72
2021/11/25 00:07:19;;;;;;;3.65;1.30;;;;;;;;;;6174241;23;19993;-74
2021/11/25 00:09:47;;;;;;;6.25;2.08;;;;;;;;;;6174771;23;20029;-72
2021/11/25 00:12:13;;;;;;;1.90;1.00;;;;;;;;;;6174308;23;20009;-72
2021/11/25 00:14:40;;;;;;;3.38;1.42;;;;;;;;;;6172733;23;20004;-72
2021/11/25 00:17:06;;;;;;;3.90;1.30;;;;;;;;;;6174100;23;20080;-72
2021/11/25 00:19:32;;;;;;;3.17;1.40;;;;;;;;;;6174922;23;20017;-73
2021/11/25 00:21:58;;;;;;;3.95;1.40;;;;;;;;;;6172796;23;20005;-74
2021/11/25 00:24:24;;;;;;;3.13;1.33;;;;;;;;;;6174996;23;20015;-74
2021/11/25 00:26:50;;;;;;;2.95;1.30;;;;;;;;;;6174541;23;20008;-75
2021/11/25 00:29:17;;;;;;;2.08;1.30;;;;;;;;;;6175092;23;20060;-76
2021/11/25 00:31:43;;;;;;;2.15;1.20;;;;;;;;;;6175338;23;20003;-76
2021/11/25 00:34:09;;;;;;;2.40;1.38;;;;;;;;;;6171356;23;20096;-75
2021/11/25 00:36:35;;;;;;;5.05;1.30;;;;;;;;;;6148726;23;20012;-75
2021/11/25 00:39:01;;;;;;;2.17;1.10;;;;;;;;;;6175205;23;20009;-74
2021/11/25 00:41:27;;;;;;;2.00;1.05;;;;;;;;;;6175059;23;20008;-76
2021/11/25 00:43:54;;;;;;;1.67;1.20;;;;;;;;;;6174788;23;20005;-75
2021/11/25 00:46:20;;;;;;;1.65;0.93;;;;;;;;;;6175157;23;20077;-75
2021/11/25 00:48:46;;;;;;;3.13;1.20;;;;;;;;;;6173223;23;20007;-74
2021/11/25 00:51:12;;;;;;;2.05;1.15;;;;;;;;;;6148644;23;20009;-76
2021/11/25 00:53:38;;;;;;;3.08;1.05;;;;;;;;;;6174684;23;20001;-75
2021/11/25 00:56:05;;;;;;;1.77;1.02;;;;;;;;;;6174675;23;20009;-75
2021/11/25 00:58:31;;;;;;;4.03;1.10;;;;;;;;;;6146208;23;20058;-75
2021/11/25 01:00:57;;;;;;;1.85;1.00;;;;;;;;;;6175056;23;20012;-75
2021/11/25 01:03:23;;;;;;;1.58;1.10;;;;;;;;;;6174964;23;20001;-76
2021/11/25 01:05:49;;;;;;;3.63;1.38;;;;;;;;;;6148613;23;20009;-75
2021/11/25 01:08:16;;;;;;;4.05;1.00;;;;;;;;;;6173690;23;20068;-75
2021/11/25 01:10:43;;;;;;;2.08;1.30;;;;;;;;;;6174691;23;19997;-75
2021/11/25 01:13:09;;;;;;;2.22;1.30;;;;;;;;;;6174789;23;20005;-75
2021/11/25 01:15:35;;;;;;;2.50;1.20;;;;;;;;;;6174697;23;20361;-76
2021/11/25 01:18:03;;;;;;;2.95;1.50;;;;;;;;;;6174301;23;20033;-76
2021/11/25 01:20:30;;;;;;;2.55;1.33;;;;;;;;;;6149338;23;20005;-76
2021/11/25 01:22:57;;;;;;;2.95;1.40;;;;;;;;;;6177113;23;19997;-75
2021/11/25 01:25:23;;;;;;;2.58;1.10;;;;;;;;;;6175342;23;20012;-75
2021/11/25 01:27:49;;;;;;;2.58;1.38;;;;;;;;;;6173965;23;20089;-76
2021/11/25 01:30:15;;;;;;;4.03;1.55;;;;;;;;;;6174510;23;20005;-75
2021/11/25 01:32:42;;;;;;;3.40;1.33;;;;;;;;;;6176818;23;20026;-76
2021/11/25 01:35:08;;;;;;;3.15;1.20;;;;;;;;;;6177022;23;20056;-75
2021/11/25 01:37:36;;;;;;;1.88;1.30;;;;;;;;;;6176423;23;20020;-76
2021/11/25 01:40:02;;;;;;;1.85;1.02;;;;;;;;;;6176559;23;20016;-75
2021/11/25 01:42:29;;;;;;;3.63;1.20;;;;;;;;;;6174936;23;20001;-76
2021/11/25 01:44:55;;;;;;;3.03;1.40;;;;;;;;;;6175234;23;20353;-75
2021/11/25 01:47:21;;;;;;;6.47;1.50;;;;;;;;;;6177698;23;19997;-76
2021/11/25 01:49:47;;;;;;;2.28;1.33;;;;;;;;;;6175486;23;20048;-76
2021/11/25 01:52:13;;;;;;;1.95;1.30;;;;;;;;;;6176859;23;20024;-76
2021/11/25 01:54:39;;;;;;;3.38;1.20;;;;;;;;;;6176616;23;19997;-76
2021/11/25 01:57:06;;;;;;;2.53;1.40;;;;;;;;;;6176583;23;20005;-74
2021/11/25 01:59:32;;;;;;;1.63;1.23;;;;;;;;;;6177901;23;20088;-75
2021/11/25 02:01:58;;;;;;;1.80;1.30;;;;;;;;;;6176298;23;20107;-75
2021/11/25 02:04:26;;;;;;;1.48;1.00;;;;;;;;;;6174920;23;20012;-76
2021/11/25 02:06:52;;;;;;;4.80;1.33;;;;;;;;;;6176792;23;20005;-74
2021/11/25 02:09:18;;;;;;;2.25;1.08;;;;;;;;;;6177050;23;20025;-76
2021/11/25 02:11:44;;;;;;;3.10;1.30;;;;;;;;;;6176717;23;20068;-76
2021/11/25 02:14:11;;;;;;;2.72;1.10;;;;;;;;;;6175155;23;20005;-76
2021/11/25 02:16:37;;;;;;;1.38;1.13;;;;;;;;;;6174412;23;20758;-75
2021/11/25 02:19:03;;;;;;;2.90;1.27;;;;;;;;;;6149884;23;20457;-75
2021/11/25 02:21:30;;;;;;;2.00;1.30;;;;;;;;;;6176884;23;20056;-75
2021/11/25 02:23:56;;;;;;;2.67;1.35;;;;;;;;;;6176261;23;20033;-75
2021/11/25 02:26:23;;;;;;;2.53;1.40;;;;;;;;;;6179094;23;20009;-76
2021/11/25 02:28:49;;;;;;;2.22;1.10;;;;;;;;;;6176875;23;20058;-75
2021/11/25 02:31:15;;;;;;;2.97;1.33;;;;;;;;;;6178477;23;20001;-76
2021/11/25 02:33:42;;;;;;;3.63;1.23;;;;;;;;;;6177508;23;20009;-75
2021/11/25 02:36:09;;;;;;;1.40;1.02;;;;;;;;;;6177618;23;20040;-75
2021/11/25 02:38:35;;;;;;;2.92;1.40;;;;;;;;;;6177935;23;20099;-75
2021/11/25 02:41:01;;;;;;;8.52;2.45;;;;;;;;;;6176964;23;19997;-74
2021/11/25 02:43:29;;;;;;;2.38;1.00;;;;;;;;;;6177749;23;20016;-75
2021/11/25 02:45:55;;;;;;;2.08;1.48;;;;;;;;;;6178358;23;20005;-75
2021/11/25 02:48:23;;;;;;;1.73;1.20;;;;;;;;;;6178618;23;20032;-74
2021/11/25 02:50:50;;;;;;;2.05;1.35;;;;;;;;;;6177097;23;20001;-74
2021/11/25 02:53:21;;;;;;;5.85;1.35;;;;;;;;;;6178417;23;20385;-74
2021/11/25 02:55:47;;;;;;;4.05;1.27;;;;;;;;;;6151453;23;20008;-75
2021/11/25 02:58:13;;;;;;;2.80;1.38;;;;;;;;;;6178529;23;20009;-75
2021/11/25 03:00:41;;;;;;;3.50;1.38;;;;;;;;;;6150635;23;20005;-76
2021/11/25 03:03:09;;;;;;;3.50;1.40;;;;;;;;;;6175837;23;20699;-76
2021/11/25 03:05:36;;;;;;;2.47;1.48;;;;;;;;;;6152443;23;20429;-75
2021/11/25 03:08:06;;;;;;;1.67;1.13;;;;;;;;;;6178286;23;20472;-76
2021/11/25 03:10:36;;;;;;;2.10;1.38;;;;;;;;;;6178934;23;20426;-75
2021/11/25 03:13:02;;;;;;;2.90;1.42;;;;;;;;;;6177185;23;20009;-75
2021/11/25 03:15:30;;;;;;;3.97;1.30;;;;;;;;;;6176700;23;20008;-75
2021/11/25 03:17:56;;;;;;;3.30;1.50;;;;;;;;;;6177703;23;20001;-76
2021/11/25 03:20:23;;;;;;;7.28;1.45;;;;;;;;;;6178745;23;20083;-75
2021/11/25 03:22:49;;;;;;;2.50;2.03;;;;;;;;;;6178603;23;20495;-76
2021/11/25 03:25:15;;;;;;;2.67;1.63;;;;;;;;;;6176665;23;20454;-76
2021/11/25 03:27:41;;;;;;;3.85;1.40;;;;;;;;;;6177554;23;19999;-75
2021/11/25 03:30:08;;;;;;;3.08;1.27;;;;;;;;;;6178721;23;20001;-76
2021/11/25 03:32:34;;;;;;;5.47;1.33;;;;;;;;;;6178161;23;20009;-75
2021/11/25 03:35:00;;;;;;;3.17;1.15;;;;;;;;;;6177940;23;20071;-76
2021/11/25 03:37:26;;;;;;;4.15;1.40;;;;;;;;;;6149744;23;20407;-75
2021/11/25 03:39:53;;;;;;;4.53;1.73;;;;;;;;;;6178300;23;20036;-75
2021/11/25 03:42:19;;;;;;;3.85;1.90;;;;;;;;;;6178229;23;20353;-75
2021/11/25 03:44:46;;;;;;;1.92;1.40;;;;;;;;;;6150540;23;20386;-75
2021/11/25 03:47:12;;;;;;;2.45;1.50;;;;;;;;;;6178125;23;20072;-75
2021/11/25 03:49:39;;;;;;;2.20;1.40;;;;;;;;;;6176267;23;20088;-75
2021/11/25 03:52:05;;;;;;;3.28;1.50;;;;;;;;;;6178405;23;20005;-75
2021/11/25 03:54:31;;;;;;;4.95;1.38;;;;;;;;;;6177105;23;20535;-75
2021/11/25 03:56:58;;;;;;;3.67;1.83;;;;;;;;;;6174656;23;20008;-75
2021/11/25 03:59:24;;;;;;;3.22;1.58;;;;;;;;;;6169672;23;20099;-75
2021/11/25 04:01:50;;;;;;;4.15;1.55;;;;;;;;;;6170685;23;20150;-75
2021/11/25 04:04:16;;;;;;;2.97;1.67;;;;;;;;;;6169236;23;20576;-75
2021/11/25 04:06:42;;;;;;;3.08;1.50;;;;;;;;;;6169243;23;20079;-76
2021/11/25 04:09:09;;;;;;;1.70;1.42;;;;;;;;;;6142153;23;20017;-76
2021/11/25 04:11:35;;;;;;;2.30;1.50;;;;;;;;;;6166534;23;20001;-75
2021/11/25 04:14:03;;;;;;;3.00;1.60;;;;;;;;;;6166686;23;20013;-76
2021/11/25 04:16:30;;;;;;;2.72;1.40;;;;;;;;;;6169179;23;20459;-75
2021/11/25 04:18:56;;;;;;;2.70;1.55;;;;;;;;;;6169447;23;20017;-76
2021/11/25 04:21:22;;;;;;;7.38;1.38;;;;;;;;;;6168305;23;19997;-75
2021/11/25 04:23:49;;;;;;;4.07;1.65;;;;;;;;;;6167189;23;20009;-75
2021/11/25 04:26:15;;;;;;;2.45;1.55;;;;;;;;;;6169315;23;20523;-76
2021/11/25 04:28:41;;;;;;;2.97;1.58;;;;;;;;;;6142473;23;20334;-75
2021/11/25 04:36:36;;;;;;;3.50;1.50;;;;;;;;;;6168469;23;20019;-76
2021/11/25 04:39:05;;;;;;;3.70;1.45;;;;;;;;;;6168613;23;20896;-75
2021/11/25 04:41:31;;;;;;;3.70;1.42;;;;;;;;;;6167637;23;20547;-76
2021/11/25 04:43:57;;;;;;;3.28;1.60;;;;;;;;;;6166907;23;20009;-76
2021/11/25 04:46:24;;;;;;;5.32;1.60;;;;;;;;;;6165662;23;20005;-75
2021/11/25 04:48:50;;;;;;;2.85;1.60;;;;;;;;;;6167471;23;20001;-75
2021/11/25 04:51:16;;;;;;;2.53;1.27;;;;;;;;;;6140929;23;20040;-75
2021/11/25 04:53:42;;;;;;;2.60;1.60;;;;;;;;;;6167051;23;20005;-75
2021/11/25 04:56:09;;;;;;;3.17;1.65;;;;;;;;;;6141633;23;20013;-76
2021/11/25 04:58:36;;;;;;;3.13;1.30;;;;;;;;;;6166024;23;20013;-75
2021/11/25 05:01:02;;;;;;;3.30;1.45;;;;;;;;;;6167625;23;20423;-76
2021/11/25 05:03:28;;;;;;;3.60;1.55;;;;;;;;;;6140936;23;20028;-75
2021/11/25 05:05:54;;;;;;;2.45;1.42;;;;;;;;;;6141485;23;20012;-76
2021/11/25 05:08:21;;;;;;;3.92;1.85;;;;;;;;;;6164595;23;20001;-76
2021/11/25 05:10:47;;;;;;;2.00;1.40;;;;;;;;;;6161698;23;20001;-76
2021/11/25 05:13:13;;;;;;;2.55;1.63;;;;;;;;;;6164127;23;20009;-76
2021/11/25 05:15:40;;;;;;;4.88;1.60;;;;;;;;;;6139719;23;20013;-75
2021/11/25 05:18:07;;;;;;;3.42;1.50;;;;;;;;;;6165501;23;20020;-75
2021/11/25 05:20:34;;;;;;;2.55;1.70;;;;;;;;;;6164332;23;20260;-75
2021/11/25 05:23:00;;;;;;;3.38;1.60;;;;;;;;;;6167380;23;20029;-75
2021/11/25 05:25:26;;;;;;;5.30;1.50;;;;;;;;;;6140502;23;20474;-74
2021/11/25 05:27:52;;;;;;;2.08;1.63;;;;;;;;;;6141525;23;20032;-75
2021/11/25 05:30:19;;;;;;;4.18;1.70;;;;;;;;;;6167832;23;20029;-75
2021/11/25 05:32:47;;;;;;;3.63;1.85;;;;;;;;;;6141918;23;20031;-75
2021/11/25 05:35:14;;;;;;;2.97;1.50;;;;;;;;;;6165925;23;20013;-75
2021/11/25 05:37:41;;;;;;;3.17;1.77;;;;;;;;;;6165745;23;20012;-77
2021/11/25 05:40:09;;;;;;;3.63;1.77;;;;;;;;;;6167598;23;20422;-75
2021/11/25 05:42:36;;;;;;;6.45;2.30;;;;;;;;;;6166080;23;20378;-75
2021/11/25 05:45:03;;;;;;;3.83;2.40;;;;;;;;;;6164461;23;20572;-75
2021/11/25 05:47:33;;;;;;;4.82;2.20;;;;;;;;;;6164779;23;20001;-76
2021/11/25 05:49:59;;;;;;;4.60;2.10;;;;;;;;;;6167791;23;20016;-76
2021/11/25 05:52:26;;;;;;;3.53;2.05;;;;;;;;;;6169287;23;20005;-75
2021/11/25 05:54:52;;;;;;;3.58;2.28;;;;;;;;;;6140180;23;20537;-76
2021/11/25 05:57:18;;;;;;;3.20;2.10;;;;;;;;;;6168368;23;20006;-76
2021/11/25 05:59:45;;;;;;;12.40;2.38;;;;;;;;;;6168646;23;20581;-76
2021/11/25 06:02:11;;;;;;;2.88;2.10;;;;;;;;;;6142230;23;20005;-75
2021/11/25 06:04:37;;;;;;;6.72;2.00;;;;;;;;;;6145685;23;20013;-75
2021/11/25 06:07:04;;;;;;;3.10;1.98;;;;;;;;;;6169663;23;20519;-73
2021/11/25 06:09:30;;;;;;;21.20;3.70;;;;;;;;;;6171554;23;20103;-72
2021/11/25 06:11:56;;;;;;;3.15;2.05;;;;;;;;;;6171369;23;19997;-74
2021/11/25 06:14:22;;;;;;;5.78;1.80;;;;;;;;;;6171439;23;20480;-74
2021/11/25 06:16:48;;;;;;;3.67;2.08;;;;;;;;;;6170943;23;20000;-74
2021/11/25 06:19:14;;;;;;;3.45;2.00;;;;;;;;;;6172527;23;20020;-74
2021/11/25 06:21:41;;;;;;;4.10;2.42;;;;;;;;;;6173018;23;20005;-74
2021/11/25 06:24:07;;;;;;;3.33;1.95;;;;;;;;;;6146110;23;20009;-74
2021/11/25 06:26:39;;;;;;;4.43;2.42;;;;;;;;;;6171057;23;20059;-74
2021/11/25 06:29:05;;;;;;;3.22;1.85;;;;;;;;;;6173190;23;20028;-74
2021/11/25 06:31:32;;;;;;;5.70;2.28;;;;;;;;;;6146778;23;20063;-73
2021/11/25 06:33:58;;;;;;;8.23;2.00;;;;;;;;;;6170565;23;20019;-75
2021/11/25 06:36:24;;;;;;;5.30;2.30;;;;;;;;;;6172764;23;20084;-75
2021/11/25 06:38:50;;;;;;;4.75;1.90;;;;;;;;;;6171021;23;20005;-75
2021/11/25 06:41:16;;;;;;;6.18;2.20;;;;;;;;;;6168902;23;20012;-76
2021/11/25 06:43:42;;;;;;;2.88;1.83;;;;;;;;;;6170028;23;20079;-75
2021/11/25 06:46:08;;;;;;;4.53;2.20;;;;;;;;;;6141724;23;20617;-74
2021/11/25 06:48:35;;;;;;;3.55;2.03;;;;;;;;;;6143700;23;20001;-75
2021/11/25 06:51:01;;;;;;;3.55;2.28;;;;;;;;;;6168137;23;20024;-75
2021/11/25 06:53:28;;;;;;;5.65;2.33;;;;;;;;;;6170983;23;20012;-76
2021/11/25 06:55:54;;;;;;;2.60;2.30;;;;;;;;;;6170577;23;20001;-76
2021/11/25 06:58:21;;;;;;;6.38;2.38;;;;;;;;;;6170583;23;20056;-76
2021/11/25 07:00:48;;;;;;;4.03;2.40;;;;;;;;;;6170246;23;20417;-75
2021/11/25 07:03:14;;;;;;;5.25;2.75;;;;;;;;;;6170133;23;20001;-76
2021/11/25 07:05:40;;;;;;;4.15;2.63;;;;;;;;;;6168426;23;20001;-76
2021/11/25 07:08:07;;;;;;;5.18;2.50;;;;;;;;;;6170701;23;20072;-75
2021/11/25 07:10:33;;;;;;;4.28;2.53;;;;;;;;;;6170331;23;20576;-76
2021/11/25 07:12:59;;;;;;;3.35;2.63;;;;;;;;;;6169510;23;20013;-75
2021/11/25 07:15:26;;;;;;;4.85;2.58;;;;;;;;;;6143085;23;20636;-76
2021/11/25 07:17:53;;;;;;;5.50;2.28;;;;;;;;;;6168253;23;20036;-75
2021/11/25 07:20:19;;;;;;;6.28;2.50;;;;;;;;;;6169832;23;20156;-75
2021/11/25 07:22:46;;;;;;;6.95;3.63;;;;;;;;;;6170276;23;20055;-75
2021/11/25 07:25:13;;;;;;;9.50;5.03;;;;;;;;;;6168243;23;20001;-76
2021/11/25 07:27:40;;;;;;;6.25;3.03;;;;;;;;;;6169924;23;20013;-76
2021/11/25 07:30:07;;;;;;;6.50;2.90;;;;;;;;;;6170087;23;20013;-75
2021/11/25 07:32:33;;;;;;;4.47;2.58;;;;;;;;;;6170245;23;20036;-76
2021/11/25 07:34:59;;;;;;;20.10;8.60;;;;;;;;;;6170192;23;20090;-75
2021/11/25 07:37:25;;;;;;;5.13;3.65;;;;;;;;;;6167213;23;20009;-76
2021/11/25 07:39:51;;;;;;;5.72;4.13;;;;;;;;;;6169935;23;20013;-76
2021/11/25 07:42:18;;;;;;;4.85;3.50;;;;;;;;;;6169661;23;20028;-75
2021/11/25 07:44:44;;;;;;;6.60;3.80;;;;;;;;;;6168636;23;20008;-75
2021/11/25 07:47:11;;;;;;;7.60;4.45;;;;;;;;;;6141460;23;20005;-76
2021/11/25 07:49:38;;;;;;;9.57;6.50;;;;;;;;;;6167393;23;20044;-76
2021/11/25 07:52:05;;;;;;;13.98;9.27;;;;;;;;;;6169610;23;20051;-75
2021/11/25 07:54:31;;;;;;;10.20;6.47;;;;;;;;;;6170002;23;20088;-76
2021/11/25 07:57:00;;;;;;;13.70;6.85;;;;;;;;;;6169808;23;20375;-76
2021/11/25 07:59:26;;;;;;;10.68;6.68;;;;;;;;;;6168063;23;20017;-76
2021/11/25 08:01:53;;;;;;;11.02;7.35;;;;;;;;;;6169577;23;20005;-75
2021/11/25 08:04:19;;;;;;;11.85;8.27;;;;;;;;;;6169963;23;20009;-75
2021/11/25 08:06:46;;;;;;;12.77;7.43;;;;;;;;;;6170009;23;20004;-76
2021/11/25 08:09:12;;;;;;;10.85;6.57;;;;;;;;;;6169549;23;20012;-76
2021/11/25 08:11:38;;;;;;;9.32;6.35;;;;;;;;;;6169426;23;20358;-75
2021/11/25 08:14:04;;;;;;;8.57;4.80;;;;;;;;;;6166244;23;19997;-76
2021/11/25 08:16:30;;;;;;;10.25;4.15;;;;;;;;;;6169736;23;20044;-76
2021/11/25 08:18:56;;;;;;;8.85;4.80;;;;;;;;;;6169719;23;20537;-76
2021/11/25 08:21:22;;;;;;;9.65;5.57;;;;;;;;;;6169396;23;20009;-77
2021/11/25 08:23:49;;;;;;;7.25;5.07;;;;;;;;;;6169436;23;19997;-76
2021/11/25 08:26:15;;;;;;;11.77;5.93;;;;;;;;;;6168589;23;20005;-76
2021/11/25 08:28:41;;;;;;;10.05;6.43;;;;;;;;;;6167622;23;20012;-75
2021/11/25 08:31:08;;;;;;;9.82;6.47;;;;;;;;;;6169260;23;20080;-76
2021/11/25 08:33:35;;;;;;;13.55;6.68;;;;;;;;;;6169379;23;20012;-76
2021/11/25 08:36:01;;;;;;;14.80;9.10;;;;;;;;;;6169478;23;20087;-76
2021/11/25 08:38:29;;;;;;;12.43;7.45;;;;;;;;;;6168536;23;20009;-75
2021/11/25 08:40:55;;;;;;;8.70;5.93;;;;;;;;;;6167670;23;20012;-75
2021/11/25 08:43:22;;;;;;;10.60;5.07;;;;;;;;;;6168687;23;20005;-76
2021/11/25 08:45:48;;;;;;;7.78;4.65;;;;;;;;;;6170921;23;20072;-75
2021/11/25 08:48:14;;;;;;;9.00;4.45;;;;;;;;;;6172581;23;20005;-75
2021/11/25 08:50:41;;;;;;;5.75;4.07;;;;;;;;;;6172068;23;19998;-77
2021/11/25 08:53:08;;;;;;;5.68;3.00;;;;;;;;;;6167035;23;20009;-74
2021/11/25 08:55:35;;;;;;;4.13;3.33;;;;;;;;;;6169947;23;20089;-75
2021/11/25 08:58:04;;;;;;;6.90;3.90;;;;;;;;;;6169329;23;20016;-73
2021/11/25 09:00:33;;;;;;;9.80;4.45;;;;;;;;;;6167762;23;20852;-74
2021/11/25 09:03:00;;;;;;;9.23;5.53;;;;;;;;;;6168030;23;20088;-74
2021/11/25 09:05:26;;;;;;;15.35;6.80;;;;;;;;;;6169130;23;20008;-75
2021/11/25 09:07:52;;;;;;;11.00;6.20;;;;;;;;;;6168603;23;20089;-76
2021/11/25 09:10:19;;;;;;;13.00;6.38;;;;;;;;;;6168431;23;20001;-74
2021/11/25 09:12:46;;;;;;;7.88;5.22;;;;;;;;;;6170827;23;20077;-73
2021/11/25 09:15:12;;;;;;;9.52;5.80;;;;;;;;;;6167739;23;20012;-75
2021/11/25 09:17:38;;;;;;;10.98;5.95;;;;;;;;;;6171355;23;20009;-75
2021/11/25 09:20:05;;;;;;;11.43;6.05;;;;;;;;;;6171255;23;20009;-75
2021/11/25 09:22:31;;;;;;;10.70;5.78;;;;;;;;;;6170472;23;20458;-74
2021/11/25 09:24:58;;;;;;;9.55;5.18;;;;;;;;;;6169958;23;20170;-73
2021/11/25 09:27:24;;;;;;;9.10;5.20;;;;;;;;;;6175271;23;20052;-74
2021/11/25 09:29:50;;;;;;;7.80;5.00;;;;;;;;;;6171397;23;20006;-74
2021/11/25 09:32:17;;;;;;;6.80;4.40;;;;;;;;;;6170955;23;20028;-74
2021/11/25 09:34:43;;;;;;;9.30;4.93;;;;;;;;;;6170247;23;20010;-75
2021/11/25 09:37:10;;;;;;;8.15;4.32;;;;;;;;;;6169985;23;20020;-75
2021/11/25 09:39:36;;;;;;;8.48;5.43;;;;;;;;;;6169552;23;20465;-75
2021/11/25 09:42:02;;;;;;;9.48;5.95;;;;;;;;;;6171493;23;20016;-74
2021/11/25 09:44:28;;;;;;;12.95;6.97;;;;;;;;;;6169868;23;20036;-75
2021/11/25 09:46:56;;;;;;;15.73;7.05;;;;;;;;;;6169628;23;19997;-75
2021/11/25 09:49:23;;;;;;;12.20;6.80;;;;;;;;;;6170247;23;20031;-75
2021/11/25 09:51:49;;;;;;;13.75;9.32;;;;;;;;;;6170253;23;20036;-74
2021/11/25 09:54:16;;;;;;;12.02;7.95;;;;;;;;;;6170933;23;20009;-74
2021/11/25 09:56:42;;;;;;;8.60;6.55;;;;;;;;;;6170772;23;20055;-74
2021/11/25 09:59:08;;;;;;;9.43;6.00;;;;;;;;;;6142613;23;20001;-75
2021/11/25 10:01:35;;;;;;;8.30;5.43;;;;;;;;;;6170924;23;20080;-75
2021/11/25 10:04:01;;;;;;;8.02;5.38;;;;;;;;;;6170832;23;20368;-74
2021/11/25 10:06:36;;;;;;;6.80;4.13;;;;;;;;;;6169042;23;20009;-74
2021/11/25 10:09:03;;;;;;;5.90;3.95;;;;;;;;;;6170852;23;20051;-74
2021/11/25 10:11:31;;;;;;;5.95;3.70;;;;;;;;;;6170941;23;20007;-75
2021/11/25 10:14:02;;;;;;;4.78;3.58;;;;;;;;;;6170177;23;20084;-74
2021/11/25 10:16:33;;;;;;;6.30;3.75;;;;;;;;;;6171387;23;20005;-75
2021/11/25 10:19:08;;;;;;;6.30;4.32;;;;;;;;;;6168896;23;20035;-74
2021/11/25 10:21:39;;;;;;;7.78;3.78;;;;;;;;;;6171214;23;20081;-74
2021/11/25 10:24:05;;;;;;;6.80;3.40;;;;;;;;;;6171395;23;20080;-75
2021/11/25 10:26:31;;;;;;;6.85;3.67;;;;;;;;;;6171084;23;20008;-75
2021/11/25 10:28:59;;;;;;;4.25;3.20;;;;;;;;;;6171235;23;20020;-75
2021/11/25 10:31:31;;;;;;;9.10;3.70;;;;;;;;;;6169669;23;20013;-74
2021/11/25 10:34:05;;;;;;;3.90;2.90;;;;;;;;;;6170420;23;20096;-74
2021/11/25 10:42:33;;;;;;;4.93;3.17;;;;;;;;;;6169134;23;20020;-75
2021/11/25 10:44:59;;;;;;;7.60;3.30;;;;;;;;;;6169877;23;20016;-75
2021/11/25 10:47:28;;;;;;;7.28;3.05;;;;;;;;;;6170951;23;20001;-75
2021/11/25 10:49:58;;;;;;;6.55;2.92;;;;;;;;;;6172737;23;20024;-75
2021/11/25 10:52:29;;;;;;;6.22;3.10;;;;;;;;;;6172394;23;20505;-74
2021/11/25 10:54:57;;;;;;;4.82;3.17;;;;;;;;;;6172890;23;20028;-74
2021/11/25 10:57:24;;;;;;;6.60;3.67;;;;;;;;;;6173010;23;20001;-74
2021/11/25 10:59:52;;;;;;;6.78;3.97;;;;;;;;;;6170300;23;20385;-74
2021/11/25 11:02:24;;;;;;;6.00;3.63;;;;;;;;;;6146881;23;20009;-75
2021/11/25 11:04:51;;;;;;;7.40;4.32;;;;;;;;;;6173527;23;20080;-74
2021/11/25 11:07:21;;;;;;;5.35;3.30;;;;;;;;;;6173505;23;20317;-75
2021/11/25 11:09:47;;;;;;;5.13;2.92;;;;;;;;;;6172951;23;20057;-74
2021/11/25 11:12:20;;;;;;;4.18;2.92;;;;;;;;;;6172498;23;20003;-75
2021/11/25 11:15:33;;;;;;;5.90;3.22;;;;;;;;;;6169777;23;20059;-74
2021/11/25 11:20:45;;;;;;;5.22;3.17;;;;;;;;;;6066594;23;20019;-75
2021/11/25 11:23:15;;;;;;;5.80;2.80;;;;;;;;;;6144371;23;20001;-74
2021/11/25 11:25:42;;;;;;;5.03;2.63;;;;;;;;;;6172484;23;20565;-75
2021/11/25 11:28:09;;;;;;;4.35;2.72;;;;;;;;;;6172828;23;20028;-75
2021/11/25 11:30:35;;;;;;;4.28;2.15;;;;;;;;;;6172690;23;20438;-74
2021/11/25 11:33:04;;;;;;;3.80;2.90;;;;;;;;;;6172936;23;20005;-74
2021/11/25 11:35:31;;;;;;;4.28;2.67;;;;;;;;;;6172747;23;20013;-74
2021/11/25 11:38:00;;;;;;;6.43;2.72;;;;;;;;;;6170599;23;20019;-75
2021/11/25 11:40:27;;;;;;;3.78;2.58;;;;;;;;;;6171765;23;20021;-74
2021/11/25 11:42:54;;;;;;;4.43;2.33;;;;;;;;;;6172585;23;20020;-74
2021/11/25 11:45:21;;;;;;;4.50;2.50;;;;;;;;;;6171133;23;20032;-74
2021/11/25 11:47:53;;;;;;;3.67;2.47;;;;;;;;;;6172223;23;20001;-74
2021/11/25 11:50:26;;;;;;;4.65;2.55;;;;;;;;;;6170518;23;20488;-74
2021/11/25 11:52:54;;;;;;;5.25;2.63;;;;;;;;;;6172393;23;20028;-75
2021/11/25 11:55:36;;;;;;;3.80;2.25;;;;;;;;;;6172246;23;20009;-75
2021/11/25 11:58:21;;;;;;;3.88;3.13;;;;;;;;;;6172316;23;20064;-75
2021/11/25 12:00:48;;;;;;;3.22;2.75;;;;;;;;;;6171948;23;20020;-74
2021/11/25 12:03:29;;;;;;;3.47;2.40;;;;;;;;;;6171998;23;20001;-75
2021/11/25 12:05:55;;;;;;;3.47;2.33;;;;;;;;;;6170160;23;20375;-75
2021/11/25 12:08:25;;;;;;;3.03;2.10;;;;;;;;;;6172371;23;20052;-75
2021/11/25 12:10:54;;;;;;;3.05;2.05;;;;;;;;;;6172191;23;20001;-74
2021/11/25 12:13:20;;;;;;;2.53;2.03;;;;;;;;;;6171648;23;20001;-74
2021/11/25 12:15:46;;;;;;;2.88;2.10;;;;;;;;;;6169949;23;19997;-74
2021/11/25 12:18:31;;;;;;;6.97;3.20;;;;;;;;;;6171839;23;20082;-74
2021/11/25 12:20:58;;;;;;;6.72;3.63;;;;;;;;;;6171755;23;20013;-75
2021/11/25 12:23:35;;;;;;;7.05;3.90;;;;;;;;;;6173074;23;20690;-75
2021/11/25 12:26:01;;;;;;;6.10;3.83;;;;;;;;;;6169676;23;20007;-74
2021/11/25 12:28:29;;;;;;;5.60;3.53;;;;;;;;;;6172288;23;20028;-75
2021/11/25 12:31:09;;;;;;;5.35;3.45;;;;;;;;;;6168779;23;20016;-74
2021/11/25 12:33:50;;;;;;;5.63;3.05;;;;;;;;;;6171265;23;20457;-74
2021/11/25 12:36:35;;;;;;;3.78;2.67;;;;;;;;;;6171620;23;20498;-75
2021/11/25 12:39:01;;;;;;;4.65;2.80;;;;;;;;;;6171419;23;20027;-74
2021/11/25 12:41:27;;;;;;;3.38;2.35;;;;;;;;;;6171426;23;20052;-76
2021/11/25 12:43:53;;;;;;;3.53;2.60;;;;;;;;;;6168778;23;20064;-74
2021/11/25 12:46:20;;;;;;;3.40;3.08;;;;;;;;;;6171901;23;20063;-75
2021/11/25 12:48:48;;;;;;;10.32;3.13;;;;;;;;;;6171450;23;19997;-75
2021/11/25 12:51:22;;;;;;;4.07;2.70;;;;;;;;;;6172203;23;20001;-74
2021/11/25 12:53:51;;;;;;;5.22;2.88;;;;;;;;;;6169292;23;20033;-74
2021/11/25 12:56:28;;;;;;;5.95;3.47;;;;;;;;;;6171496;23;20005;-74
2021/11/25 12:58:57;;;;;;;4.28;3.17;;;;;;;;;;6171593;23;20005;-76
2021/11/25 13:01:25;;;;;;;3.53;2.80;;;;;;;;;;6171479;23;20012;-75
2021/11/25 13:04:10;;;;;;;4.20;3.35;;;;;;;;;;6172214;23;20445;-75
2021/11/25 13:06:42;;;;;;;4.47;3.53;;;;;;;;;;6171610;23;20028;-75
2021/11/25 13:09:13;;;;;;;4.10;3.22;;;;;;;;;;6169826;23;20012;-74
2021/11/25 13:11:40;;;;;;;5.15;3.63;;;;;;;;;;6171129;23;20007;-74
2021/11/25 13:14:08;;;;;;;3.97;3.38;;;;;;;;;;6170674;23;20009;-74
2021/11/25 13:16:39;;;;;;;6.03;3.60;;;;;;;;;;6171530;23;20021;-74
2021/11/25 13:19:05;;;;;;;3.88;3.45;;;;;;;;;;6171688;23;20009;-74
2021/11/25 13:21:33;;;;;;;4.70;3.90;;;;;;;;;;6169220;23;20060;-75
2021/11/25 13:24:03;;;;;;;6.93;3.60;;;;;;;;;;6169876;23;20005;-74
2021/11/25 13:26:43;;;;;;;5.22;3.50;;;;;;;;;;6169720;23;20020;-74
2021/11/25 13:29:09;;;;;;;11.02;3.95;;;;;;;;;;6170014;23;20005;-74
2021/11/25 13:31:35;;;;;;;8.60;4.15;;;;;;;;;;6167024;23;20449;-76
2021/11/25 13:34:02;;;;;;;3.80;3.42;;;;;;;;;;6168046;23;20021;-75
2021/11/25 13:36:41;;;;;;;10.07;3.78;;;;;;;;;;6170208;23;20008;-78
2021/11/25 13:39:10;;;;;;;6.03;3.60;;;;;;;;;;6170462;23;20013;-75
2021/11/25 13:41:36;;;;;;;4.30;3.72;;;;;;;;;;6170528;23;20005;-75
2021/11/25 13:44:04;;;;;;;5.47;3.75;;;;;;;;;;6167666;23;20021;-76
2021/11/25 13:46:41;;;;;;;4.07;3.58;;;;;;;;;;6169552;23;20012;-78
2021/11/25 13:49:09;;;;;;;6.63;3.80;;;;;;;;;;6169843;23;19989;-76
2021/11/25 13:51:35;;;;;;;5.35;3.78;;;;;;;;;;6171807;23;20067;-74
2021/11/25 13:54:06;;;;;;;6.05;3.67;;;;;;;;;;6167144;23;20005;-75
2021/11/25 13:56:33;;;;;;;6.47;3.92;;;;;;;;;;6169078;23;20087;-77
2021/11/25 13:58:59;;;;;;;7.28;3.80;;;;;;;;;;6143168;23;20067;-75
2021/11/25 14:01:26;;;;;;;6.65;4.30;;;;;;;;;;6169763;23;20032;-75
2021/11/25 14:03:52;;;;;;;10.00;5.05;;;;;;;;;;6170680;23;20306;-74
2021/11/25 14:06:22;;;;;;;7.93;4.22;;;;;;;;;;6171192;23;20009;-73
2021/11/25 14:08:49;;;;;;;5.03;3.42;;;;;;;;;;6168312;23;20001;-75
2021/11/25 14:11:16;;;;;;;5.72;3.33;;;;;;;;;;6169768;23;20009;-74
2021/11/25 14:13:42;;;;;;;3.85;3.38;;;;;;;;;;6169440;23;19997;-76
2021/11/25 14:16:22;;;;;;;4.10;3.30;;;;;;;;;;6170561;23;20024;-75
2021/11/25 14:18:48;;;;;;;7.13;5.32;;;;;;;;;;6168767;23;20028;-73
2021/11/25 14:21:15;;;;;;;8.63;6.90;;;;;;;;;;6146795;23;20005;-76
2021/11/25 14:23:41;;;;;;;6.15;4.72;;;;;;;;;;6172307;23;20020;-76
2021/11/25 14:26:14;;;;;;;6.70;5.10;;;;;;;;;;6172667;23;20009;-80
2021/11/25 14:31:27;;;;;;;4.30;2.72;;;;;;;;;;6174441;23;20024;-79
2021/11/25 14:34:04;;;;;;;6.03;2.30;;;;;;;;;;6173373;23;20036;-75
2021/11/25 14:36:32;;;;;;;3.28;2.03;;;;;;;;;;6173524;23;20009;-75
2021/11/25 14:38:59;;;;;;;3.45;2.03;;;;;;;;;;6171640;23;20072;-77
2021/11/25 14:41:27;;;;;;;2.17;1.45;;;;;;;;;;6169582;23;20009;-73
2021/11/25 14:44:07;;;;;;;2.78;1.90;;;;;;;;;;6169227;23;20012;-77
2021/11/25 14:46:34;;;;;;;4.00;1.77;;;;;;;;;;6145741;23;20044;-74
2021/11/25 14:49:01;;;;;;;2.78;1.60;;;;;;;;;;6167516;23;20417;-74
2021/11/25 14:51:27;;;;;;;2.88;1.80;;;;;;;;;;6164201;23;20005;-75
2021/11/25 14:53:54;;;;;;;2.05;1.50;;;;;;;;;;6169759;23;20013;-74
2021/11/25 14:56:25;;;;;;;3.33;2.00;;;;;;;;;;6169982;23;20509;-74
2021/11/25 14:59:03;;;;;;;2.30;1.98;;;;;;;;;;6169599;23;20005;-75